SKVP/VUP METAR and TAF weather

Enter ICAO airport designator
Station Type Date Time Source
SKVP METAR 2019/08/24 04:00 UTC NOAA

SKVP 240400Z 01003KT 9999 FEW020 SCT100 27/24 A2995


Station Type Date Time Source
SKVP Decoded METAR 2019/08/24 04:00 UTC NOAA

Station name not available
Aug 24, 2019 - 12:00 AM EDT / 2019.08.24 0400 UTC
Wind: from the N (010 degrees) at 3 MPH (3 KT):0
Visibility: greater than 7 mile(s):0
Sky conditions: partly cloudy
Temperature: 80 F (27 C)
Dew Point: 75 F (24 C)
Relative Humidity: 83%
Pressure (altimeter): 29.95 in. Hg (1014 hPa)
ob: SKVP 240400Z 01003KT 9999 FEW020 SCT100 27/24 A2995
cycle: 4

Station Type Date Time Source
SKVP TAF UTC NOAA

Error!

Example: see airport list